createdAt,value
2019-03-26T00:00:55.256Z,969.05
2019-03-26T00:01:55.201Z,969.00
2019-03-26T00:02:55.162Z,968.97
2019-03-26T00:04:05.361Z,968.96
2019-03-26T00:04:55.058Z,968.99
2019-03-26T00:05:54.985Z,968.95
2019-03-26T00:06:55.089Z,968.97
2019-03-26T00:07:54.878Z,968.97
2019-03-26T00:08:54.825Z,968.93
2019-03-26T00:09:54.789Z,968.96
2019-03-26T00:10:54.719Z,968.97
2019-03-26T00:11:54.906Z,969.00
2019-03-26T00:12:54.611Z,969.01
2019-03-26T00:13:57.554Z,969.00
2019-03-26T00:14:54.506Z,968.99
2019-03-26T00:15:54.449Z,969.00
2019-03-26T00:16:54.602Z,968.96
2019-03-26T00:17:54.347Z,968.97
2019-03-26T00:18:54.290Z,968.97
2019-03-26T00:19:54.261Z,968.95
2019-03-26T00:20:54.183Z,968.96
2019-03-26T00:21:54.306Z,969.00
2019-03-26T00:22:54.142Z,969.04
2019-03-26T00:23:54.021Z,969.05
2019-03-26T00:24:53.986Z,969.05
2019-03-26T00:25:53.913Z,969.05
2019-03-26T00:26:54.102Z,969.05
2019-03-26T00:27:53.815Z,969.03
2019-03-26T00:28:53.775Z,969.02
2019-03-26T00:29:53.907Z,968.98
2019-03-26T00:30:53.645Z,969.01
2019-03-26T00:31:53.596Z,969.03
2019-03-26T00:32:53.557Z,969.03
2019-03-26T00:33:53.489Z,969.02
2019-03-26T00:34:53.611Z,969.04
2019-03-26T00:35:53.380Z,969.12
2019-03-26T00:36:53.327Z,969.11
2019-03-26T00:37:53.281Z,969.14
2019-03-26T00:38:53.216Z,969.18
2019-03-26T00:39:53.411Z,969.19
2019-03-26T00:40:53.111Z,969.19
2019-03-26T00:41:53.056Z,969.24
2019-03-26T00:42:53.020Z,969.27
2019-03-26T00:43:52.947Z,969.31
2019-03-26T00:44:53.107Z,969.30
2019-03-26T00:45:52.840Z,969.35
2019-03-26T00:46:52.789Z,969.38
2019-03-26T00:47:52.751Z,969.39
2019-03-26T00:48:52.682Z,969.42
2019-03-26T00:49:52.820Z,969.43
2019-03-26T00:50:52.575Z,969.45
2019-03-26T00:51:52.518Z,969.53
2019-03-26T00:52:52.485Z,969.55
2019-03-26T00:53:52.414Z,969.59
2019-03-26T00:54:52.525Z,969.61
2019-03-26T00:55:52.305Z,969.58
2019-03-26T00:56:52.253Z,969.65
2019-03-26T00:57:52.244Z,969.61
2019-03-26T00:58:52.215Z,969.63
2019-03-26T00:59:52.329Z,969.67
2019-03-26T01:00:52.150Z,969.65
2019-03-26T01:01:51.982Z,969.65
2019-03-26T01:02:51.932Z,969.67
2019-03-26T01:03:54.799Z,969.70
2019-03-26T01:04:51.825Z,969.72
2019-03-26T01:05:51.776Z,969.66
2019-03-26T01:06:51.730Z,969.70
2019-03-26T01:07:51.664Z,969.68
2019-03-26T01:08:51.823Z,969.67
2019-03-26T01:09:51.557Z,969.64
2019-03-26T01:10:51.502Z,969.71
2019-03-26T01:11:51.467Z,969.68
2019-03-26T01:12:51.399Z,969.70
2019-03-26T01:13:51.531Z,969.73
2019-03-26T01:14:51.290Z,969.72
2019-03-26T01:15:51.237Z,969.69
2019-03-26T01:16:51.203Z,969.78
2019-03-26T01:17:51.132Z,969.80
2019-03-26T01:18:51.227Z,969.82
2019-03-26T01:19:51.023Z,969.82
2019-03-26T01:20:50.967Z,969.81
2019-03-26T01:21:50.931Z,969.80
2019-03-26T01:22:50.865Z,969.85
2019-03-26T01:23:51.033Z,969.82
2019-03-26T01:24:50.761Z,969.87
2019-03-26T01:25:50.708Z,969.90
2019-03-26T01:26:50.670Z,969.89
2019-03-26T01:27:50.599Z,969.88
2019-03-26T01:28:50.744Z,969.85
2019-03-26T01:29:50.497Z,969.87
2019-03-26T01:30:50.439Z,969.82
2019-03-26T01:31:50.400Z,969.83
2019-03-26T01:32:50.333Z,969.83
2019-03-26T01:33:50.432Z,969.80
2019-03-26T01:34:50.231Z,969.78
2019-03-26T01:35:50.185Z,969.79
2019-03-26T01:36:50.138Z,969.82
2019-03-26T01:37:50.067Z,969.82
2019-03-26T01:38:50.249Z,969.80
2019-03-26T01:39:49.962Z,969.82
2019-03-26T01:40:49.908Z,969.81
2019-03-26T01:41:49.877Z,969.85
2019-03-26T01:42:49.800Z,969.83
2019-03-26T01:43:49.959Z,969.86
2019-03-26T01:44:49.695Z,969.87
2019-03-26T01:45:49.639Z,969.89
2019-03-26T01:46:49.605Z,969.90
2019-03-26T01:47:49.536Z,969.89
2019-03-26T01:48:49.647Z,969.90
2019-03-26T01:49:49.430Z,969.87
2019-03-26T01:50:49.377Z,969.85
2019-03-26T01:51:49.337Z,969.91
2019-03-26T01:52:49.270Z,969.92
2019-03-26T01:53:49.454Z,969.92
2019-03-26T01:54:49.165Z,969.89
2019-03-26T01:55:49.111Z,969.91
2019-03-26T01:56:49.080Z,969.89
2019-03-26T01:57:49.004Z,969.87
2019-03-26T01:58:49.148Z,969.91
2019-03-26T01:59:48.904Z,969.91
2019-03-26T02:00:48.854Z,969.94
2019-03-26T02:01:48.803Z,969.87
2019-03-26T02:02:48.738Z,969.91
2019-03-26T02:03:48.854Z,969.87
2019-03-26T02:04:59.370Z,969.87
2019-03-26T02:05:48.580Z,969.93
2019-03-26T02:06:48.541Z,969.90
2019-03-26T02:07:48.476Z,969.95
2019-03-26T02:08:48.645Z,969.98
2019-03-26T02:09:48.367Z,969.98
2019-03-26T02:10:48.314Z,970.01
2019-03-26T02:11:48.271Z,969.99
2019-03-26T02:12:48.731Z,970.05
2019-03-26T02:13:48.349Z,970.04
2019-03-26T02:14:48.098Z,970.07
2019-03-26T02:15:48.047Z,970.08
2019-03-26T02:16:48.012Z,970.10
2019-03-26T02:17:47.940Z,970.10
2019-03-26T02:18:48.070Z,970.11
2019-03-26T02:19:47.829Z,970.17
2019-03-26T02:20:47.777Z,970.15
2019-03-26T02:21:47.743Z,970.16
2019-03-26T02:22:47.672Z,970.14
2019-03-26T02:23:47.868Z,970.13
2019-03-26T02:24:47.565Z,970.11
2019-03-26T02:25:47.513Z,970.09
2019-03-26T02:26:47.476Z,970.07
2019-03-26T02:27:47.408Z,970.14
2019-03-26T02:28:47.561Z,970.09
2019-03-26T02:29:47.298Z,970.10
2019-03-26T02:30:47.246Z,970.10
2019-03-26T02:31:47.207Z,970.11
2019-03-26T02:32:47.139Z,970.10
2019-03-26T02:33:47.272Z,970.07
2019-03-26T02:34:47.032Z,970.10
2019-03-26T02:35:47.062Z,970.14
2019-03-26T02:36:47.165Z,970.13
2019-03-26T02:37:46.870Z,970.16
2019-03-26T02:38:46.820Z,970.14
2019-03-26T02:39:46.779Z,970.16
2019-03-26T02:40:46.712Z,970.19
2019-03-26T02:41:46.875Z,970.22
2019-03-26T02:42:46.604Z,970.23
2019-03-26T02:43:46.557Z,970.29
2019-03-26T02:44:46.518Z,970.24
2019-03-26T02:45:46.444Z,970.22
2019-03-26T02:46:46.590Z,970.26
2019-03-26T02:47:46.338Z,970.26
2019-03-26T02:48:46.283Z,970.28
2019-03-26T02:49:46.249Z,970.30
2019-03-26T02:50:46.177Z,970.27
2019-03-26T02:51:46.272Z,970.30
2019-03-26T02:52:46.070Z,970.27
2019-03-26T02:53:46.018Z,970.23
2019-03-26T02:54:45.979Z,970.24
2019-03-26T02:55:45.912Z,970.28
2019-03-26T02:56:46.080Z,970.30
2019-03-26T02:57:45.805Z,970.33
2019-03-26T02:58:45.750Z,970.31
2019-03-26T02:59:45.713Z,970.30
2019-03-26T03:00:45.644Z,970.33
2019-03-26T03:01:45.769Z,970.35
2019-03-26T03:02:45.541Z,970.37
2019-03-26T03:03:45.502Z,970.40
2019-03-26T03:04:45.453Z,970.41
2019-03-26T03:05:45.377Z,970.46
2019-03-26T03:06:45.487Z,970.46
2019-03-26T03:07:45.270Z,970.52
2019-03-26T03:08:45.218Z,970.52
2019-03-26T03:09:45.181Z,970.55
2019-03-26T03:10:45.109Z,970.55
2019-03-26T03:11:45.276Z,970.59
2019-03-26T03:12:45.114Z,970.57
2019-03-26T03:13:44.955Z,970.58
2019-03-26T03:14:44.910Z,970.62
2019-03-26T03:15:44.843Z,970.62
2019-03-26T03:16:44.998Z,970.67
2019-03-26T03:17:44.739Z,970.66
2019-03-26T03:18:44.685Z,970.62
2019-03-26T03:19:44.653Z,970.66
2019-03-26T03:20:44.590Z,970.63
2019-03-26T03:21:44.695Z,970.65
2019-03-26T03:22:44.472Z,970.66
2019-03-26T03:23:44.414Z,970.63
2019-03-26T03:24:44.381Z,970.66
2019-03-26T03:25:44.315Z,970.65
2019-03-26T03:26:44.560Z,970.66
2019-03-26T03:27:44.213Z,970.63
2019-03-26T03:28:44.153Z,970.64
2019-03-26T03:29:44.112Z,970.65
2019-03-26T03:30:44.045Z,970.66
2019-03-26T03:31:44.214Z,970.69
2019-03-26T03:32:43.939Z,970.64
2019-03-26T03:33:43.885Z,970.67
2019-03-26T03:34:43.844Z,970.62
2019-03-26T03:35:51.953Z,970.59
2019-03-26T03:36:43.724Z,970.59
2019-03-26T03:37:43.673Z,970.55
2019-03-26T03:38:43.804Z,970.53
2019-03-26T03:39:43.565Z,970.56
2019-03-26T03:40:43.512Z,970.57
2019-03-26T03:41:43.477Z,970.58
2019-03-26T03:42:43.405Z,970.58
2019-03-26T03:43:43.600Z,970.59
2019-03-26T03:44:43.298Z,970.62
2019-03-26T03:45:43.256Z,970.64
2019-03-26T03:46:43.217Z,970.64
2019-03-26T03:47:43.139Z,970.62
2019-03-26T03:48:43.318Z,970.71
2019-03-26T03:49:43.033Z,970.72
2019-03-26T03:50:42.981Z,970.74
2019-03-26T03:51:42.940Z,970.73
2019-03-26T03:52:42.904Z,970.77
2019-03-26T03:53:43.009Z,970.74
2019-03-26T03:54:42.763Z,970.82
2019-03-26T03:55:42.714Z,970.78
2019-03-26T03:56:42.678Z,970.85
2019-03-26T03:57:42.606Z,970.90
2019-03-26T03:58:42.570Z,970.86
2019-03-26T03:59:42.496Z,970.87
2019-03-26T04:00:42.596Z,970.94
2019-03-26T04:01:42.390Z,970.91
2019-03-26T04:02:42.337Z,970.94
2019-03-26T04:03:42.301Z,970.91
2019-03-26T04:04:42.229Z,970.93
2019-03-26T04:05:42.421Z,970.93
2019-03-26T04:06:42.240Z,970.90
2019-03-26T04:07:42.068Z,970.86
2019-03-26T04:08:42.034Z,970.90
2019-03-26T04:09:41.966Z,970.87
2019-03-26T04:10:42.109Z,970.92
2019-03-26T04:11:41.863Z,970.94
2019-03-26T04:12:41.802Z,970.97
2019-03-26T04:13:41.771Z,970.99
2019-03-26T04:14:41.696Z,971.00
2019-03-26T04:15:41.812Z,971.07
2019-03-26T04:16:41.591Z,971.11
2019-03-26T04:17:41.539Z,971.11
2019-03-26T04:18:41.502Z,971.11
2019-03-26T04:19:41.431Z,971.15
2019-03-26T04:20:41.617Z,971.14
2019-03-26T04:21:41.329Z,971.11
2019-03-26T04:22:41.270Z,971.13
2019-03-26T04:23:41.242Z,971.17
2019-03-26T04:24:41.163Z,971.17
2019-03-26T04:25:41.320Z,971.19
2019-03-26T04:26:41.060Z,971.16
2019-03-26T04:27:41.008Z,971.15
2019-03-26T04:28:40.969Z,971.16
2019-03-26T04:29:40.898Z,971.15
2019-03-26T04:30:41.019Z,971.17
2019-03-26T04:31:40.809Z,971.16
2019-03-26T04:32:40.738Z,971.20
2019-03-26T04:33:40.704Z,971.19
2019-03-26T04:34:40.630Z,971.20
2019-03-26T04:35:40.822Z,971.21
2019-03-26T04:36:40.546Z,971.23
2019-03-26T04:37:40.471Z,971.28
2019-03-26T04:38:40.433Z,971.31
2019-03-26T04:39:40.360Z,971.32
2019-03-26T04:40:40.532Z,971.31
2019-03-26T04:41:40.260Z,971.32
2019-03-26T04:42:40.207Z,971.33
2019-03-26T04:43:40.168Z,971.32
2019-03-26T04:44:40.097Z,971.40
2019-03-26T04:45:40.334Z,971.41
2019-03-26T04:46:39.991Z,971.41
2019-03-26T04:47:39.938Z,971.41
2019-03-26T04:48:39.903Z,971.46
2019-03-26T04:49:39.831Z,971.47
2019-03-26T04:50:39.926Z,971.48
2019-03-26T04:51:39.721Z,971.53
2019-03-26T04:52:39.669Z,971.51
2019-03-26T04:53:39.642Z,971.55
2019-03-26T04:54:39.563Z,971.58
2019-03-26T04:55:39.734Z,971.59
2019-03-26T04:56:39.464Z,971.60
2019-03-26T04:57:39.404Z,971.61
2019-03-26T04:58:39.351Z,971.61
2019-03-26T04:59:39.301Z,971.65
2019-03-26T05:00:39.264Z,971.64
2019-03-26T05:01:39.191Z,971.65
2019-03-26T05:02:39.330Z,971.66
2019-03-26T05:03:39.084Z,971.62
2019-03-26T05:04:39.033Z,971.64
2019-03-26T05:05:38.990Z,971.67
2019-03-26T05:06:38.920Z,971.67
2019-03-26T05:07:39.036Z,971.69
2019-03-26T05:08:38.817Z,971.68
2019-03-26T05:09:38.771Z,971.67
2019-03-26T05:10:38.728Z,971.63
2019-03-26T05:11:38.659Z,971.68
2019-03-26T05:12:38.829Z,971.64
2019-03-26T05:13:38.550Z,971.67
2019-03-26T05:14:38.498Z,971.70
2019-03-26T05:15:38.462Z,971.73
2019-03-26T05:16:38.386Z,971.72
2019-03-26T05:17:38.533Z,971.76
2019-03-26T05:18:38.286Z,971.75
2019-03-26T05:19:38.231Z,971.76
2019-03-26T05:20:38.194Z,971.77
2019-03-26T05:21:38.126Z,971.74
2019-03-26T05:22:38.239Z,971.75
2019-03-26T05:23:38.017Z,971.77
2019-03-26T05:24:37.964Z,971.78
2019-03-26T05:25:37.931Z,971.78
2019-03-26T05:26:37.861Z,971.87
2019-03-26T05:27:45.334Z,971.86
2019-03-26T05:28:37.752Z,971.81
2019-03-26T05:29:37.698Z,971.84
2019-03-26T05:30:37.663Z,971.89
2019-03-26T05:31:37.591Z,971.88
2019-03-26T05:32:37.756Z,971.87
2019-03-26T05:33:37.486Z,971.84
2019-03-26T05:34:37.432Z,971.89
2019-03-26T05:35:37.395Z,971.87
2019-03-26T05:36:50.360Z,971.88
2019-03-26T05:37:37.291Z,971.87
2019-03-26T05:38:37.331Z,971.92
2019-03-26T05:39:37.360Z,971.90
2019-03-26T05:40:37.113Z,971.95
2019-03-26T05:41:37.059Z,971.91
2019-03-26T05:42:37.023Z,971.91
2019-03-26T05:43:36.952Z,971.95
2019-03-26T05:44:37.044Z,971.97
2019-03-26T05:45:36.845Z,971.95
2019-03-26T05:46:36.790Z,972.00
2019-03-26T05:47:36.752Z,971.99
2019-03-26T05:48:36.689Z,972.00
2019-03-26T05:49:36.858Z,972.00
2019-03-26T05:50:36.586Z,971.99
2019-03-26T05:51:36.526Z,971.95
2019-03-26T05:52:36.490Z,971.95
2019-03-26T05:53:36.420Z,971.95
2019-03-26T05:54:36.556Z,971.96
2019-03-26T05:55:36.315Z,971.94
2019-03-26T05:56:36.259Z,972.00
2019-03-26T05:57:36.223Z,972.02
2019-03-26T05:58:36.151Z,972.01
2019-03-26T05:59:36.263Z,972.01
2019-03-26T06:00:36.045Z,972.02
2019-03-26T06:01:35.992Z,972.04
2019-03-26T06:02:35.956Z,972.04
2019-03-26T06:03:35.891Z,972.08
2019-03-26T06:04:36.058Z,972.06
2019-03-26T06:05:35.779Z,972.07
2019-03-26T06:06:35.730Z,972.07
2019-03-26T06:07:35.690Z,972.16
2019-03-26T06:08:35.620Z,972.14
2019-03-26T06:09:35.760Z,972.18
2019-03-26T06:10:35.513Z,972.21
2019-03-26T06:11:35.459Z,972.23
2019-03-26T06:12:35.419Z,972.20
2019-03-26T06:13:35.354Z,972.22
2019-03-26T06:14:35.460Z,972.27
2019-03-26T06:15:35.247Z,972.27
2019-03-26T06:16:38.467Z,972.34
2019-03-26T06:17:35.141Z,972.37
2019-03-26T06:18:35.089Z,972.36
2019-03-26T06:19:35.062Z,972.38
2019-03-26T06:20:34.978Z,972.41
2019-03-26T06:21:35.170Z,972.37
2019-03-26T06:22:35.013Z,972.35
2019-03-26T06:23:34.818Z,972.37
2019-03-26T06:24:34.768Z,972.32
2019-03-26T06:25:34.715Z,972.35
2019-03-26T06:26:34.697Z,972.43
2019-03-26T06:27:34.615Z,972.39
2019-03-26T06:28:34.701Z,972.42
2019-03-26T06:29:34.502Z,972.40
2019-03-26T06:30:34.463Z,972.42
2019-03-26T06:31:34.397Z,972.44
2019-03-26T06:32:34.343Z,972.44
2019-03-26T06:33:34.293Z,972.48
2019-03-26T06:34:34.238Z,972.44
2019-03-26T06:35:34.184Z,972.44
2019-03-26T06:36:34.130Z,972.41
2019-03-26T06:37:34.079Z,972.47
2019-03-26T06:38:34.022Z,972.47
2019-03-26T06:39:33.973Z,972.41
2019-03-26T06:40:33.917Z,972.48
2019-03-26T06:41:33.872Z,972.50
2019-03-26T06:42:33.822Z,972.58
2019-03-26T06:43:33.760Z,972.53
2019-03-26T06:44:33.713Z,972.56
2019-03-26T06:45:33.657Z,972.53
2019-03-26T06:46:33.601Z,972.58
2019-03-26T06:47:33.559Z,972.57
2019-03-26T06:48:33.494Z,972.54
2019-03-26T06:49:33.445Z,972.58
2019-03-26T06:50:33.575Z,972.56
2019-03-26T06:51:33.351Z,972.54
2019-03-26T06:52:33.285Z,972.57
2019-03-26T06:53:33.232Z,972.59
2019-03-26T06:54:33.187Z,972.61
2019-03-26T06:55:33.133Z,972.60
2019-03-26T06:56:33.075Z,972.64
2019-03-26T06:57:35.813Z,972.62
2019-03-26T06:58:32.977Z,972.63
2019-03-26T06:59:32.927Z,972.62
2019-03-26T07:00:32.871Z,972.63
2019-03-26T07:01:32.823Z,972.65
2019-03-26T07:02:32.766Z,972.60
2019-03-26T07:03:33.216Z,972.64
2019-03-26T07:04:33.088Z,972.59
2019-03-26T07:05:32.628Z,972.64
2019-03-26T07:06:32.803Z,972.65
2019-03-26T07:07:32.504Z,972.70
2019-03-26T07:08:32.447Z,972.73
2019-03-26T07:09:32.394Z,972.82
2019-03-26T07:10:32.344Z,972.78
2019-03-26T07:11:53.282Z,972.76
2019-03-26T07:12:32.235Z,972.81
2019-03-26T07:13:32.189Z,972.81
2019-03-26T07:14:32.139Z,972.83
2019-03-26T07:15:32.092Z,972.81
2019-03-26T07:16:32.026Z,972.80
2019-03-26T07:17:31.980Z,972.85
2019-03-26T07:18:31.923Z,972.87
2019-03-26T07:19:31.888Z,972.86
2019-03-26T07:20:31.819Z,972.87
2019-03-26T07:21:31.901Z,972.85
2019-03-26T07:22:31.713Z,972.86
2019-03-26T07:23:31.664Z,972.90
2019-03-26T07:24:31.610Z,972.91
2019-03-26T07:25:31.563Z,972.91
2019-03-26T07:27:58.394Z,972.98
